TUA180 UTAV-UTAA
Flight info
| Callsign | TUA180 |
|---|---|
| Flight time | 0h 53m |
| Altitude | 26000 |
| Route | N0450F260 DUTAR A117 URABA |
| Aircraft | B737/M-VGDW/C |
Departure
| Time | 2026-04-13 20:31 |
|---|---|
| Airport | Türkmenabat International Airport (UTAV) |
Arrival
| Time | 2026-04-13 21:24 |
|---|---|
| Airport | Ashgabat International Airport (UTAA) |
| Time | Latitude | Longitude | Altitude | Speed | Heading |
|---|---|---|---|---|---|
| 2026-04-13 20:01 | 38.93619 | 63.56641 | 643 ft | 0 kts | 40° |
| 2026-04-13 20:19 | 38.93613 | 63.56634 | 643 ft | 2 kts | 40° |
| 2026-04-13 20:19 | 38.93602 | 63.56622 | 643 ft | 2 kts | 40° |
| 2026-04-13 20:19 | 38.93590 | 63.56610 | 643 ft | 2 kts | 39° |
| 2026-04-13 20:20 | 38.93579 | 63.56598 | 642 ft | 2 kts | 40° |
| 2026-04-13 20:20 | 38.93568 | 63.56586 | 642 ft | 2 kts | 40° |
| 2026-04-13 20:20 | 38.93561 | 63.56578 | 642 ft | 2 kts | 39° |
| 2026-04-13 20:20 | 38.93548 | 63.56571 | 642 ft | 2 kts | 6° |
| 2026-04-13 20:21 | 38.93533 | 63.56572 | 642 ft | 2 kts | 341° |
| 2026-04-13 20:21 | 38.93521 | 63.56581 | 641 ft | 1 kts | 316° |
| 2026-04-13 20:21 | 38.93516 | 63.56587 | 641 ft | 1 kts | 307° |
| 2026-04-13 20:21 | 38.93515 | 63.56589 | 641 ft | 0 kts | 310° |
| 2026-04-13 20:23 | 38.93519 | 63.56583 | 641 ft | 4 kts | 310° |
| 2026-04-13 20:23 | 38.93560 | 63.56522 | 642 ft | 11 kts | 310° |
| 2026-04-13 20:24 | 38.93609 | 63.56449 | 642 ft | 10 kts | 311° |
| 2026-04-13 20:24 | 38.93654 | 63.56378 | 641 ft | 9 kts | 286° |
| 2026-04-13 20:24 | 38.93626 | 63.56301 | 641 ft | 10 kts | 219° |
| 2026-04-13 20:24 | 38.93573 | 63.56243 | 641 ft | 10 kts | 220° |
| 2026-04-13 20:25 | 38.93519 | 63.56185 | 641 ft | 9 kts | 220° |
| 2026-04-13 20:25 | 38.93490 | 63.56128 | 641 ft | 7 kts | 274° |
| 2026-04-13 20:25 | 38.93511 | 63.56072 | 641 ft | 7 kts | 310° |
| 2026-04-13 20:25 | 38.93563 | 63.55993 | 641 ft | 16 kts | 310° |
| 2026-04-13 20:26 | 38.93650 | 63.55862 | 641 ft | 19 kts | 310° |
| 2026-04-13 20:26 | 38.93739 | 63.55730 | 642 ft | 18 kts | 310° |
| 2026-04-13 20:26 | 38.93821 | 63.55607 | 644 ft | 17 kts | 310° |
| 2026-04-13 20:26 | 38.93900 | 63.55488 | 644 ft | 17 kts | 310° |
| 2026-04-13 20:27 | 38.93978 | 63.55370 | 644 ft | 17 kts | 310° |
| 2026-04-13 20:27 | 38.94056 | 63.55254 | 644 ft | 16 kts | 310° |
| 2026-04-13 20:27 | 38.94132 | 63.55140 | 644 ft | 16 kts | 310° |
| 2026-04-13 20:27 | 38.94207 | 63.55027 | 645 ft | 16 kts | 310° |
| 2026-04-13 20:28 | 38.94267 | 63.54937 | 645 ft | 9 kts | 307° |
| 2026-04-13 20:28 | 38.94280 | 63.54855 | 644 ft | 9 kts | 253° |
| 2026-04-13 20:28 | 38.94234 | 63.54791 | 644 ft | 9 kts | 218° |
| 2026-04-13 20:28 | 38.94185 | 63.54750 | 644 ft | 7 kts | 184° |
| 2026-04-13 20:29 | 38.94146 | 63.54781 | 644 ft | 2 kts | 130° |
| 2026-04-13 20:30 | 38.94080 | 63.54881 | 644 ft | 46 kts | 130° |
| 2026-04-13 20:30 | 38.93717 | 63.55423 | 642 ft | 112 kts | 129° |
| 2026-04-13 20:31 | 38.93090 | 63.56379 | 650 ft | 164 kts | 126° |
| 2026-04-13 20:31 | 38.92340 | 63.57471 | 1284 ft | 163 kts | 127° |
| 2026-04-13 20:31 | 38.91544 | 63.58459 | 1976 ft | 165 kts | 144° |
| 2026-04-13 20:31 | 38.90363 | 63.58801 | 2397 ft | 187 kts | 182° |
| 2026-04-13 20:32 | 38.89086 | 63.58279 | 2879 ft | 204 kts | 206° |
| 2026-04-13 20:32 | 38.88023 | 63.57019 | 3327 ft | 222 kts | 239° |
| 2026-04-13 20:32 | 38.87481 | 63.55100 | 3822 ft | 236 kts | 250° |
| 2026-04-13 20:32 | 38.86863 | 63.53069 | 4332 ft | 250 kts | 248° |
| 2026-04-13 20:33 | 38.86328 | 63.50895 | 4872 ft | 263 kts | 257° |
| 2026-04-13 20:33 | 38.86028 | 63.48545 | 5408 ft | 275 kts | 263° |
| 2026-04-13 20:33 | 38.85854 | 63.46076 | 6131 ft | 281 kts | 265° |
| 2026-04-13 20:33 | 38.85712 | 63.43618 | 6937 ft | 282 kts | 265° |
| 2026-04-13 20:34 | 38.85560 | 63.41105 | 7801 ft | 282 kts | 264° |
| 2026-04-13 20:34 | 38.85398 | 63.38631 | 8645 ft | 282 kts | 264° |
| 2026-04-13 20:34 | 38.85226 | 63.36151 | 9448 ft | 285 kts | 263° |
| 2026-04-13 20:34 | 38.85048 | 63.33621 | 10295 ft | 286 kts | 263° |
| 2026-04-13 20:35 | 38.84865 | 63.31036 | 10916 ft | 298 kts | 263° |
| 2026-04-13 20:35 | 38.84674 | 63.28331 | 11452 ft | 313 kts | 263° |
| 2026-04-13 20:35 | 38.84478 | 63.25511 | 12129 ft | 323 kts | 263° |
| 2026-04-13 20:35 | 38.84283 | 63.22685 | 13010 ft | 325 kts | 263° |
| 2026-04-13 20:36 | 38.84086 | 63.19807 | 13858 ft | 328 kts | 263° |
| 2026-04-13 20:36 | 38.83886 | 63.16907 | 14702 ft | 333 kts | 263° |
| 2026-04-13 20:36 | 38.83684 | 63.13953 | 15524 ft | 337 kts | 263° |
| 2026-04-13 20:36 | 38.83478 | 63.10950 | 16313 ft | 342 kts | 264° |
| 2026-04-13 20:37 | 38.83271 | 63.07908 | 17130 ft | 346 kts | 264° |
| 2026-04-13 20:37 | 38.83064 | 63.04841 | 17912 ft | 350 kts | 264° |
| 2026-04-13 20:37 | 38.82854 | 63.01743 | 18675 ft | 354 kts | 264° |
| 2026-04-13 20:37 | 38.82642 | 62.98603 | 19394 ft | 358 kts | 264° |
| 2026-04-13 20:38 | 38.82428 | 62.95405 | 20158 ft | 361 kts | 264° |
| 2026-04-13 20:38 | 38.82214 | 62.92184 | 20867 ft | 365 kts | 264° |
| 2026-04-13 20:38 | 38.81998 | 62.88929 | 21561 ft | 369 kts | 264° |
| 2026-04-13 20:38 | 38.81783 | 62.85693 | 22235 ft | 372 kts | 264° |
| 2026-04-13 20:39 | 38.81567 | 62.82407 | 23124 ft | 369 kts | 264° |
| 2026-04-13 20:39 | 38.81354 | 62.79176 | 24090 ft | 363 kts | 264° |
| 2026-04-13 20:39 | 38.81147 | 62.76012 | 25001 ft | 358 kts | 264° |
| 2026-04-13 20:39 | 38.80939 | 62.72848 | 25682 ft | 357 kts | 264° |
| 2026-04-13 20:40 | 38.80733 | 62.69701 | 25917 ft | 360 kts | 264° |
| 2026-04-13 20:40 | 38.80524 | 62.66504 | 25917 ft | 357 kts | 264° |
| 2026-04-13 20:40 | 38.80321 | 62.63375 | 25912 ft | 354 kts | 264° |
| 2026-04-13 20:40 | 38.80116 | 62.60204 | 25912 ft | 354 kts | 264° |
| 2026-04-13 20:41 | 38.79915 | 62.57073 | 25915 ft | 355 kts | 264° |
| 2026-04-13 20:41 | 38.79669 | 62.53952 | 25914 ft | 355 kts | 262° |
| 2026-04-13 20:41 | 38.79327 | 62.50824 | 25909 ft | 354 kts | 260° |
| 2026-04-13 20:41 | 38.78943 | 62.47721 | 25911 ft | 354 kts | 260° |
| 2026-04-13 20:42 | 38.78547 | 62.44590 | 25908 ft | 354 kts | 260° |
| 2026-04-13 20:42 | 38.78162 | 62.41512 | 25908 ft | 355 kts | 260° |
| 2026-04-13 20:42 | 38.77779 | 62.38403 | 25910 ft | 355 kts | 260° |
| 2026-04-13 20:42 | 38.77399 | 62.35266 | 25907 ft | 353 kts | 260° |
| 2026-04-13 20:43 | 38.77029 | 62.32188 | 25902 ft | 353 kts | 259° |
| 2026-04-13 20:43 | 38.76659 | 62.29088 | 25906 ft | 352 kts | 259° |
| 2026-04-13 20:43 | 38.76289 | 62.25989 | 25905 ft | 352 kts | 259° |
| 2026-04-13 20:43 | 38.75920 | 62.22899 | 25904 ft | 352 kts | 259° |
| 2026-04-13 20:44 | 38.75550 | 62.19807 | 25903 ft | 352 kts | 259° |
| 2026-04-13 20:44 | 38.75178 | 62.16711 | 25903 ft | 353 kts | 259° |
| 2026-04-13 20:44 | 38.74805 | 62.13604 | 25905 ft | 352 kts | 259° |
| 2026-04-13 20:44 | 38.74430 | 62.10495 | 25904 ft | 352 kts | 259° |
| 2026-04-13 20:45 | 38.74057 | 62.07407 | 25902 ft | 353 kts | 259° |
| 2026-04-13 20:45 | 38.73681 | 62.04303 | 25902 ft | 353 kts | 259° |
| 2026-04-13 20:45 | 38.73306 | 62.01215 | 25905 ft | 353 kts | 259° |
| 2026-04-13 20:46 | 38.72552 | 61.95023 | 25900 ft | 353 kts | 259° |
| 2026-04-13 20:46 | 38.72171 | 61.91902 | 25900 ft | 353 kts | 259° |
| 2026-04-13 20:46 | 38.71796 | 61.88838 | 25901 ft | 353 kts | 259° |
| 2026-04-13 20:46 | 38.71414 | 61.85727 | 25898 ft | 352 kts | 259° |
| 2026-04-13 20:47 | 38.71035 | 61.82640 | 25895 ft | 352 kts | 259° |
| 2026-04-13 20:47 | 38.70654 | 61.79546 | 25892 ft | 352 kts | 259° |
| 2026-04-13 20:47 | 38.70274 | 61.76472 | 25891 ft | 352 kts | 259° |
| 2026-04-13 20:47 | 38.69894 | 61.73410 | 25894 ft | 351 kts | 259° |
| 2026-04-13 20:48 | 38.69511 | 61.70327 | 25890 ft | 351 kts | 259° |
| 2026-04-13 20:48 | 38.69128 | 61.67249 | 25892 ft | 351 kts | 259° |
| 2026-04-13 20:48 | 38.68744 | 61.64163 | 25891 ft | 352 kts | 259° |
| 2026-04-13 20:48 | 38.68358 | 61.61074 | 25891 ft | 351 kts | 259° |
| 2026-04-13 20:49 | 38.67975 | 61.58009 | 25886 ft | 352 kts | 259° |
| 2026-04-13 20:49 | 38.67589 | 61.54930 | 25887 ft | 350 kts | 259° |
| 2026-04-13 20:49 | 38.67200 | 61.51837 | 25884 ft | 351 kts | 259° |
| 2026-04-13 20:49 | 38.66813 | 61.48765 | 25884 ft | 352 kts | 259° |
| 2026-04-13 20:50 | 38.66424 | 61.45689 | 25892 ft | 350 kts | 259° |
| 2026-04-13 20:50 | 38.66036 | 61.42619 | 25889 ft | 351 kts | 259° |
| 2026-04-13 20:50 | 38.65650 | 61.39576 | 25887 ft | 351 kts | 259° |
| 2026-04-13 20:50 | 38.65214 | 61.36519 | 25892 ft | 350 kts | 256° |
| 2026-04-13 20:51 | 38.64644 | 61.33463 | 25895 ft | 350 kts | 253° |
| 2026-04-13 20:51 | 38.64019 | 61.30454 | 25895 ft | 349 kts | 253° |
| 2026-04-13 20:51 | 38.63388 | 61.27478 | 25895 ft | 349 kts | 253° |
| 2026-04-13 20:51 | 38.62765 | 61.24513 | 25896 ft | 349 kts | 253° |
| 2026-04-13 20:52 | 38.62143 | 61.21505 | 25898 ft | 350 kts | 253° |
| 2026-04-13 20:52 | 38.61530 | 61.18507 | 25896 ft | 350 kts | 253° |
| 2026-04-13 20:52 | 38.60920 | 61.15503 | 25898 ft | 350 kts | 253° |
| 2026-04-13 20:52 | 38.60316 | 61.12515 | 25898 ft | 349 kts | 253° |
| 2026-04-13 20:53 | 38.59713 | 61.09532 | 25897 ft | 350 kts | 253° |
| 2026-04-13 20:53 | 38.59106 | 61.06527 | 25894 ft | 349 kts | 253° |
| 2026-04-13 20:53 | 38.58499 | 61.03529 | 25895 ft | 349 kts | 253° |
| 2026-04-13 20:53 | 38.57891 | 61.00524 | 25895 ft | 349 kts | 253° |
| 2026-04-13 20:54 | 38.57289 | 60.97555 | 25891 ft | 349 kts | 253° |
| 2026-04-13 20:54 | 38.56676 | 60.94536 | 25892 ft | 349 kts | 253° |
| 2026-04-13 20:54 | 38.56067 | 60.91543 | 25894 ft | 348 kts | 253° |
| 2026-04-13 20:54 | 38.55465 | 60.88587 | 25890 ft | 348 kts | 253° |
| 2026-04-13 20:55 | 38.54855 | 60.85592 | 25891 ft | 348 kts | 253° |
| 2026-04-13 20:55 | 38.54242 | 60.82595 | 25889 ft | 349 kts | 253° |
| 2026-04-13 20:55 | 38.53635 | 60.79623 | 25888 ft | 349 kts | 253° |
| 2026-04-13 20:55 | 38.53019 | 60.76618 | 25890 ft | 349 kts | 253° |
| 2026-04-13 20:56 | 38.52406 | 60.73626 | 25888 ft | 348 kts | 253° |
| 2026-04-13 20:56 | 38.51791 | 60.70634 | 25886 ft | 349 kts | 253° |
| 2026-04-13 20:56 | 38.51174 | 60.67631 | 25884 ft | 349 kts | 253° |
| 2026-04-13 20:56 | 38.50564 | 60.64671 | 25882 ft | 349 kts | 253° |
| 2026-04-13 20:57 | 38.49946 | 60.61673 | 25882 ft | 349 kts | 253° |
| 2026-04-13 20:57 | 38.49332 | 60.58700 | 25879 ft | 350 kts | 253° |
| 2026-04-13 20:57 | 38.48713 | 60.55707 | 25875 ft | 349 kts | 253° |
| 2026-04-13 20:57 | 38.48092 | 60.52709 | 25876 ft | 349 kts | 253° |
| 2026-04-13 20:58 | 38.47472 | 60.49717 | 25874 ft | 350 kts | 253° |
| 2026-04-13 20:58 | 38.46847 | 60.46713 | 25871 ft | 350 kts | 253° |
| 2026-04-13 20:58 | 38.46228 | 60.43734 | 25872 ft | 349 kts | 253° |
| 2026-04-13 20:58 | 38.45613 | 60.40781 | 25872 ft | 349 kts | 253° |
| 2026-04-13 20:59 | 38.44982 | 60.37759 | 25872 ft | 350 kts | 253° |
| 2026-04-13 20:59 | 38.44355 | 60.34757 | 25869 ft | 351 kts | 253° |
| 2026-04-13 20:59 | 38.43732 | 60.31776 | 25869 ft | 349 kts | 252° |
| 2026-04-13 20:59 | 38.43102 | 60.28769 | 25865 ft | 349 kts | 252° |
| 2026-04-13 21:00 | 38.42473 | 60.25765 | 25866 ft | 348 kts | 252° |
| 2026-04-13 21:00 | 38.41852 | 60.22809 | 25862 ft | 348 kts | 253° |
| 2026-04-13 21:00 | 38.41228 | 60.19842 | 25861 ft | 348 kts | 253° |
| 2026-04-13 21:00 | 38.40601 | 60.16862 | 25861 ft | 349 kts | 252° |
| 2026-04-13 21:01 | 38.39972 | 60.13881 | 25857 ft | 349 kts | 252° |
| 2026-04-13 21:01 | 38.39339 | 60.10884 | 25857 ft | 348 kts | 252° |
| 2026-04-13 21:01 | 38.38713 | 60.07921 | 25860 ft | 350 kts | 252° |
| 2026-04-13 21:01 | 38.38078 | 60.04927 | 25857 ft | 348 kts | 252° |
| 2026-04-13 21:02 | 38.37447 | 60.01951 | 25857 ft | 349 kts | 252° |
| 2026-04-13 21:02 | 38.36810 | 59.98951 | 25853 ft | 350 kts | 252° |
| 2026-04-13 21:02 | 38.36181 | 59.95994 | 25856 ft | 349 kts | 252° |
| 2026-04-13 21:02 | 38.35545 | 59.93005 | 25861 ft | 349 kts | 252° |
| 2026-04-13 21:03 | 38.34909 | 59.90028 | 25865 ft | 349 kts | 252° |
| 2026-04-13 21:03 | 38.34275 | 59.87054 | 25869 ft | 347 kts | 252° |
| 2026-04-13 21:03 | 38.33647 | 59.84118 | 25872 ft | 348 kts | 252° |
| 2026-04-13 21:03 | 38.33006 | 59.81128 | 25871 ft | 348 kts | 252° |
| 2026-04-13 21:04 | 38.32373 | 59.78173 | 25870 ft | 346 kts | 252° |
| 2026-04-13 21:04 | 38.31747 | 59.75253 | 25867 ft | 344 kts | 252° |
| 2026-04-13 21:04 | 38.31119 | 59.72326 | 25753 ft | 337 kts | 252° |
| 2026-04-13 21:04 | 38.30514 | 59.69505 | 25411 ft | 331 kts | 252° |
| 2026-04-13 21:05 | 38.29910 | 59.66698 | 24979 ft | 329 kts | 252° |
| 2026-04-13 21:05 | 38.29298 | 59.63865 | 24526 ft | 335 kts | 252° |
| 2026-04-13 21:05 | 38.28681 | 59.61018 | 24070 ft | 337 kts | 252° |
| 2026-04-13 21:05 | 38.28064 | 59.58169 | 23614 ft | 334 kts | 252° |
| 2026-04-13 21:06 | 38.27454 | 59.55347 | 23170 ft | 331 kts | 253° |
| 2026-04-13 21:06 | 38.26848 | 59.52552 | 22725 ft | 328 kts | 252° |
| 2026-04-13 21:06 | 38.26242 | 59.49766 | 22282 ft | 325 kts | 252° |
| 2026-04-13 21:06 | 38.25644 | 59.47013 | 21850 ft | 323 kts | 252° |
| 2026-04-13 21:07 | 38.25050 | 59.44281 | 21414 ft | 320 kts | 253° |
| 2026-04-13 21:07 | 38.24466 | 59.41601 | 20982 ft | 318 kts | 253° |
| 2026-04-13 21:07 | 38.23875 | 59.38893 | 20546 ft | 315 kts | 253° |
| 2026-04-13 21:07 | 38.23292 | 59.36224 | 20125 ft | 313 kts | 253° |
| 2026-04-13 21:08 | 38.22725 | 59.33591 | 19633 ft | 313 kts | 253° |
| 2026-04-13 21:08 | 38.22286 | 59.30858 | 19112 ft | 314 kts | 259° |
| 2026-04-13 21:08 | 38.22018 | 59.28151 | 18861 ft | 309 kts | 262° |
| 2026-04-13 21:08 | 38.21811 | 59.25448 | 18612 ft | 309 kts | 263° |
| 2026-04-13 21:09 | 38.21614 | 59.22726 | 18365 ft | 309 kts | 262° |
| 2026-04-13 21:09 | 38.21414 | 59.20029 | 18017 ft | 306 kts | 262° |
| 2026-04-13 21:09 | 38.21207 | 59.17353 | 17444 ft | 304 kts | 262° |
| 2026-04-13 21:09 | 38.20994 | 59.14710 | 16827 ft | 303 kts | 262° |
| 2026-04-13 21:10 | 38.20777 | 59.12065 | 16281 ft | 300 kts | 261° |
| 2026-04-13 21:10 | 38.20558 | 59.09413 | 15851 ft | 299 kts | 261° |
| 2026-04-13 21:10 | 38.20342 | 59.06809 | 15444 ft | 297 kts | 261° |
| 2026-04-13 21:10 | 38.20129 | 59.04243 | 15044 ft | 295 kts | 261° |
| 2026-04-13 21:11 | 38.19913 | 59.01648 | 14650 ft | 293 kts | 261° |
| 2026-04-13 21:11 | 38.19699 | 58.99083 | 14251 ft | 291 kts | 261° |
| 2026-04-13 21:11 | 38.19487 | 58.96549 | 13861 ft | 289 kts | 261° |
| 2026-04-13 21:11 | 38.19277 | 58.94040 | 13477 ft | 287 kts | 261° |
| 2026-04-13 21:12 | 38.19066 | 58.91523 | 13090 ft | 285 kts | 261° |
| 2026-04-13 21:12 | 38.18858 | 58.89060 | 12719 ft | 283 kts | 261° |
| 2026-04-13 21:12 | 38.18648 | 58.86569 | 12344 ft | 281 kts | 261° |
| 2026-04-13 21:12 | 38.18442 | 58.84139 | 11971 ft | 279 kts | 261° |
| 2026-04-13 21:13 | 38.18235 | 58.81686 | 11585 ft | 278 kts | 261° |
| 2026-04-13 21:13 | 38.18028 | 58.79257 | 11214 ft | 276 kts | 261° |
| 2026-04-13 21:13 | 38.17820 | 58.76831 | 10844 ft | 278 kts | 260° |
| 2026-04-13 21:13 | 38.17610 | 58.74387 | 10470 ft | 282 kts | 260° |
| 2026-04-13 21:14 | 38.17399 | 58.71925 | 10100 ft | 280 kts | 260° |
| 2026-04-13 21:14 | 38.17191 | 58.69507 | 9873 ft | 274 kts | 260° |
| 2026-04-13 21:14 | 38.16989 | 58.67126 | 9856 ft | 267 kts | 260° |
| 2026-04-13 21:14 | 38.16788 | 58.64800 | 9831 ft | 265 kts | 260° |
| 2026-04-13 21:15 | 38.16589 | 58.62504 | 9557 ft | 263 kts | 260° |
| 2026-04-13 21:15 | 38.16387 | 58.60190 | 9122 ft | 266 kts | 260° |
| 2026-04-13 21:15 | 38.16181 | 58.57844 | 8717 ft | 267 kts | 260° |
| 2026-04-13 21:15 | 38.15977 | 58.55501 | 8340 ft | 267 kts | 260° |
| 2026-04-13 21:16 | 38.15772 | 58.53150 | 7959 ft | 267 kts | 260° |
| 2026-04-13 21:16 | 38.15568 | 58.50834 | 7562 ft | 266 kts | 260° |
| 2026-04-13 21:16 | 38.15365 | 58.48511 | 7128 ft | 266 kts | 260° |
| 2026-04-13 21:16 | 38.15160 | 58.46177 | 6641 ft | 269 kts | 260° |
| 2026-04-13 21:17 | 38.14952 | 58.43827 | 6237 ft | 269 kts | 260° |
| 2026-04-13 21:17 | 38.14743 | 58.41459 | 5920 ft | 268 kts | 260° |
| 2026-04-13 21:17 | 38.14532 | 58.39080 | 5557 ft | 268 kts | 261° |
| 2026-04-13 21:17 | 38.14327 | 58.36759 | 5208 ft | 267 kts | 261° |
| 2026-04-13 21:18 | 38.14119 | 58.34428 | 4873 ft | 266 kts | 260° |
| 2026-04-13 21:18 | 38.13910 | 58.32079 | 4539 ft | 267 kts | 261° |
| 2026-04-13 21:18 | 38.13701 | 58.29738 | 4234 ft | 263 kts | 261° |
| 2026-04-13 21:18 | 38.13502 | 58.27485 | 4093 ft | 253 kts | 261° |
| 2026-04-13 21:19 | 38.13307 | 58.25316 | 3936 ft | 244 kts | 261° |
| 2026-04-13 21:19 | 38.13116 | 58.23206 | 3668 ft | 241 kts | 261° |
| 2026-04-13 21:19 | 38.12799 | 58.21129 | 3396 ft | 235 kts | 249° |
| 2026-04-13 21:19 | 38.11957 | 58.19460 | 3156 ft | 221 kts | 217° |
| 2026-04-13 21:20 | 38.10609 | 58.18682 | 2982 ft | 207 kts | 188° |
| 2026-04-13 21:20 | 38.09208 | 58.18549 | 2822 ft | 197 kts | 174° |
| 2026-04-13 21:20 | 38.07917 | 58.18893 | 2636 ft | 186 kts | 160° |
| 2026-04-13 21:20 | 38.06788 | 58.19591 | 2478 ft | 176 kts | 136° |
| 2026-04-13 21:21 | 38.06090 | 58.20795 | 2471 ft | 163 kts | 121° |
| 2026-04-13 21:21 | 38.05513 | 58.21993 | 2486 ft | 154 kts | 121° |
| 2026-04-13 21:21 | 38.04983 | 58.23141 | 2470 ft | 149 kts | 120° |
| 2026-04-13 21:21 | 38.04476 | 58.24285 | 2464 ft | 146 kts | 119° |
| 2026-04-13 21:22 | 38.03984 | 58.25391 | 2301 ft | 142 kts | 120° |
| 2026-04-13 21:22 | 38.03511 | 58.26461 | 2090 ft | 136 kts | 120° |
| 2026-04-13 21:22 | 38.03043 | 58.27508 | 1926 ft | 139 kts | 120° |
| 2026-04-13 21:22 | 38.02570 | 58.28573 | 1735 ft | 138 kts | 120° |
| 2026-04-13 21:23 | 38.02100 | 58.29639 | 1550 ft | 138 kts | 120° |
| 2026-04-13 21:23 | 38.01623 | 58.30699 | 1356 ft | 138 kts | 120° |
| 2026-04-13 21:23 | 38.01163 | 58.31752 | 1178 ft | 137 kts | 120° |
| 2026-04-13 21:23 | 38.00697 | 58.32815 | 1002 ft | 136 kts | 120° |
| 2026-04-13 21:24 | 38.00235 | 58.33850 | 832 ft | 136 kts | 120° |
| 2026-04-13 21:24 | 37.99764 | 58.34899 | 696 ft | 131 kts | 120° |
| 2026-04-13 21:24 | 37.99406 | 58.35704 | 696 ft | 74 kts | 119° |
| 2026-04-13 21:24 | 37.99216 | 58.36130 | 696 ft | 47 kts | 119° |
| 2026-04-13 21:25 | 37.99052 | 58.36501 | 696 ft | 33 kts | 118° |
| 2026-04-13 21:25 | 37.98976 | 58.36673 | 696 ft | 16 kts | 119° |
| 2026-04-13 21:25 | 37.98925 | 58.36758 | 696 ft | 8 kts | 150° |
| 2026-04-13 21:25 | 37.98878 | 58.36747 | 696 ft | 7 kts | 207° |
| 2026-04-13 21:26 | 37.98832 | 58.36714 | 696 ft | 7 kts | 209° |
| 2026-04-13 21:26 | 37.98784 | 58.36680 | 697 ft | 7 kts | 205° |
| 2026-04-13 21:26 | 37.98731 | 58.36663 | 697 ft | 7 kts | 192° |
| 2026-04-13 21:26 | 37.98675 | 58.36642 | 697 ft | 8 kts | 211° |
| 2026-04-13 21:27 | 37.98611 | 58.36591 | 697 ft | 15 kts | 208° |
| 2026-04-13 21:27 | 37.98498 | 58.36512 | 697 ft | 19 kts | 208° |
| 2026-04-13 21:27 | 37.98385 | 58.36432 | 697 ft | 13 kts | 208° |
| 2026-04-13 21:27 | 37.98322 | 58.36431 | 697 ft | 9 kts | 140° |
| 2026-04-13 21:28 | 37.98286 | 58.36507 | 697 ft | 12 kts | 118° |
| 2026-04-13 21:28 | 37.98241 | 58.36608 | 697 ft | 13 kts | 118° |
| 2026-04-13 21:28 | 37.98196 | 58.36709 | 697 ft | 13 kts | 119° |
| 2026-04-13 21:28 | 37.98151 | 58.36812 | 697 ft | 13 kts | 118° |
| 2026-04-13 21:29 | 37.98107 | 58.36910 | 697 ft | 11 kts | 119° |
| 2026-04-13 21:29 | 37.98085 | 58.36977 | 697 ft | 5 kts | 66° |
| 2026-04-13 21:29 | 37.98121 | 58.37007 | 697 ft | 5 kts | 29° |
| 2026-04-13 21:29 | 37.98151 | 58.37029 | 697 ft | 3 kts | 29° |
| 2026-04-13 21:30 | 37.98163 | 58.37037 | 697 ft | 0 kts | 29° |